Baker, Florida
Current Conditions -  °F | °C
As of 1:53 PM on Wednesday 17 Dec 2014 (Local Time) from KCEW Reporting Station
Clear Clear  
Wind Chill: 60°   Ceiling: Unl
Heat Index: 60°   Visibility: 10mi
Dew Point: 40°   Wind: 5mph
Humidity: 47%   Direction: NA
Pressure: 30.18"   Gusts: NA
Location:  30.8°N, 86.68°W
Report Text: KCEW 171953Z AUTO VRB04KT 10SM CLR 16/04 A3018 RMK AO2 SLP220 T01560044
Loading
Personal Weather Stations






























Interactive Weather Map New forecast layout! Learn more

10-Day Weather Forecast

Advertisements
Track Severe Weather on mobile